Time;durP1;ratioP1;P1;durP2;ratioP2;P2;SDS_P1;SDS_P2;PMS_P1;PMS_P2;Temp;Humidity;BMP_temperature;BMP_pressure;BME280_temperature;BME280_humidity;BME280_pressure;Samples;Min_cycle;Max_cycle;Signal;HPM_P1;HPM_P2
2022/05/18 04:58:47;;;;;;;3.75;1.25;;;;;;;9.81;55.41;99816.84;1772998;80;21603;-41
2022/05/18 05:01:13;;;;;;;4.90;1.32;;;;;;;9.94;55.34;99815.48;1748747;81;21373;-50
2022/05/18 05:03:40;;;;;;;3.55;1.20;;;;;;;10.05;54.39;99809.32;1738495;82;21072;-49
2022/05/18 05:06:07;;;;;;;7.37;1.50;;;;;;;10.17;54.27;99808.82;1720234;82;21018;-49
2022/05/18 05:08:37;;;;;;;6.30;1.22;;;;;;;10.27;53.53;99803.56;1735174;82;21112;-49
2022/05/18 05:11:05;;;;;;;3.58;1.20;;;;;;;10.35;53.05;99816.58;1745131;82;21000;-49
2022/05/18 05:13:33;;;;;;;3.77;1.75;;;;;;;10.42;53.24;99811.73;1730269;82;21057;-49
2022/05/18 05:16:03;;;;;;;5.80;1.37;;;;;;;10.54;52.08;99809.46;1720413;82;21032;-49
2022/05/18 05:18:30;;;;;;;9.68;1.98;;;;;;;10.64;51.89;99805.90;1735679;82;21090;-49
2022/05/18 05:20:56;;;;;;;4.65;1.82;;;;;;;10.69;51.63;99808.05;1746746;81;21530;-49
2022/05/18 05:23:24;;;;;;;11.00;1.72;;;;;;;10.69;51.74;99804.12;1751046;82;21076;-49
2022/05/18 05:25:52;;;;;;;5.95;1.52;;;;;;;10.71;50.62;99804.96;1750560;82;21452;-50
2022/05/18 05:28:19;;;;;;;3.85;1.90;;;;;;;10.70;50.85;99806.29;1721204;82;21033;-51
2022/05/18 05:30:46;;;;;;;2.60;1.30;;;;;;;10.65;50.91;99812.42;1729527;82;20977;-50
2022/05/18 05:33:14;;;;;;;9.10;1.20;;;;;;;10.60;51.65;99811.59;1747138;81;21021;-50
2022/05/18 05:35:41;;;;;;;5.75;1.17;;;;;;;10.56;49.87;99816.88;1743025;82;20988;-50
2022/05/18 05:38:09;;;;;;;4.20;1.57;;;;;;;10.55;50.07;99829.50;1742197;82;21081;-50
2022/05/18 05:40:38;;;;;;;3.00;1.20;;;;;;;10.58;49.88;99821.20;1735851;82;20969;-50
2022/05/18 05:43:09;;;;;;;18.73;1.70;;;;;;;10.66;49.79;99822.44;1739500;82;21555;-50
2022/05/18 05:45:37;;;;;;;1.87;1.10;;;;;;;10.75;49.28;99836.77;1745065;82;21064;-50
2022/05/18 05:48:07;;;;;;;13.90;2.33;;;;;;;10.83;49.81;99832.33;1733766;82;21041;-51
2022/05/18 05:50:33;;;;;;;10.53;2.05;;;;;;;10.96;48.06;99835.73;1732033;82;21065;-50
2022/05/18 05:53:01;;;;;;;7.20;1.65;;;;;;;11.05;48.04;99840.01;1743535;82;21096;-50
2022/05/18 05:55:28;;;;;;;9.33;2.12;;;;;;;11.14;47.93;99838.18;1766406;81;21020;-50
2022/05/18 05:57:55;;;;;;;20.55;2.30;;;;;;;11.29;47.50;99846.31;1726077;82;21071;-42
2022/05/18 06:00:23;;;;;;;4.58;1.57;;;;;;;11.41;46.92;99838.77;1723945;82;20993;-43
2022/05/18 06:02:52;;;;;;;4.00;1.67;;;;;;;11.46;45.79;99854.00;1737476;82;21037;-42
2022/05/18 06:05:19;;;;;;;13.28;1.67;;;;;;;11.45;46.64;99842.66;1734356;82;20950;-42
2022/05/18 06:09:49;;;;;;;9.40;2.80;;;;;;;11.58;46.48;99842.07;1801083;79;22652;-41
2022/05/18 06:12:16;;;;;;;6.58;1.57;;;;;;;11.51;45.76;99857.88;1742081;81;21154;-42
2022/05/18 06:14:44;;;;;;;3.40;1.62;;;;;;;11.42;45.66;99849.66;1730541;83;21579;-42
2022/05/18 06:17:11;;;;;;;5.33;1.50;;;;;;;11.35;46.25;99858.03;1706076;83;21059;-49
2022/05/18 06:19:37;;;;;;;10.40;1.80;;;;;;;11.31;45.40;99851.56;1730368;83;21085;-48
2022/05/18 06:22:04;;;;;;;7.45;1.72;;;;;;;11.26;45.38;99853.34;1730347;83;21056;-49
2022/05/18 06:24:31;;;;;;;6.92;1.70;;;;;;;11.18;46.09;99868.67;1730519;83;21548;-49
2022/05/18 06:26:58;;;;;;;6.28;1.70;;;;;;;11.16;46.19;99865.20;1722657;82;21060;-49
2022/05/18 06:29:25;;;;;;;5.87;1.27;;;;;;;11.15;46.46;99862.61;1720163;83;21555;-43
2022/05/18 06:31:52;;;;;;;6.12;1.42;;;;;;;11.11;44.56;99866.13;1720395;83;21536;-49
2022/05/18 06:34:21;;;;;;;5.15;1.42;;;;;;;11.07;45.48;99863.97;1730989;83;21060;-41
2022/05/18 06:36:48;;;;;;;9.18;2.20;;;;;;;11.09;42.79;99869.21;1718814;83;21040;-41
2022/05/18 06:39:18;;;;;;;6.25;1.60;;;;;;;11.09;42.89;99882.30;1706405;84;21641;-49
2022/05/18 06:41:46;;;;;;;11.45;1.40;;;;;;;11.04;42.86;99882.34;1690201;84;21475;-41
2022/05/18 06:44:13;;;;;;;6.12;1.05;;;;;;;11.03;43.20;99893.69;1685281;85;21753;-42
2022/05/18 06:46:40;;;;;;;3.95;1.07;;;;;;;11.13;44.26;99884.89;1685340;85;21062;-41
2022/05/18 06:49:10;;;;;;;3.22;0.75;;;;;;;11.30;44.64;99884.70;1682712;85;21109;-43
2022/05/18 06:51:42;;;;;;;1.07;0.82;;;;;;;11.43;44.81;99892.03;1677473;85;21002;-42
2022/05/18 06:54:09;;;;;;;3.45;1.30;;;;;;;11.53;45.58;99886.23;1685615;85;21068;-50
2022/05/18 06:56:41;;;;;;;5.87;1.37;;;;;;;11.56;43.88;99883.16;1684294;85;21527;-50
2022/05/18 06:59:08;;;;;;;2.98;1.05;;;;;;;11.45;43.66;99888.50;1677087;85;21504;-50
2022/05/18 07:01:37;;;;;;;2.02;0.90;;;;;;;11.36;43.12;99902.11;1686306;84;21044;-43
2022/05/18 07:04:04;;;;;;;10.85;1.40;;;;;;;11.39;42.62;99895.55;1692677;84;21534;-43
2022/05/18 07:06:42;;;;;;;7.22;1.32;;;;;;;11.43;41.74;99892.03;1688926;84;20999;-42
2022/05/18 07:09:13;;;;;;;9.73;1.92;;;;;;;11.53;41.87;99901.95;1682113;83;21754;-43
2022/05/18 07:11:45;;;;;;;7.65;1.10;;;;;;;11.66;41.59;99891.80;1668621;84;21006;-43
2022/05/18 07:14:13;;;;;;;2.70;1.20;;;;;;;11.80;41.71;99894.25;1712405;82;21579;-43
2022/05/18 07:16:40;;;;;;;11.22;1.57;;;;;;;11.91;39.58;99884.09;1699459;82;20994;-41
2022/05/18 07:19:07;;;;;;;2.08;0.82;;;;;;;11.95;38.68;99897.60;1710551;82;21005;-52
2022/05/18 07:21:34;;;;;;;3.05;0.93;;;;;;;11.95;38.89;99900.23;1713453;83;21053;-49
2022/05/18 07:24:00;;;;;;;1.12;0.60;;;;;;;11.94;39.59;99908.08;1717988;82;21843;-50
2022/05/18 07:26:27;;;;;;;0.88;0.82;;;;;;;11.95;39.85;99909.40;1669630;85;20985;-50
2022/05/18 07:28:54;;;;;;;1.45;0.57;;;;;;;11.99;40.57;99908.91;1675253;83;21489;-50
2022/05/18 07:31:21;;;;;;;1.60;0.70;;;;;;;12.02;41.08;99908.02;1680408;83;20974;-50
2022/05/18 07:33:48;;;;;;;1.40;0.70;;;;;;;12.05;42.35;99911.89;1676068;83;21104;-43
2022/05/18 07:36:15;;;;;;;1.12;0.50;;;;;;;11.99;42.38;99918.94;1704534;82;21516;-50
2022/05/18 07:38:44;;;;;;;2.27;0.78;;;;;;;11.94;43.44;99917.26;1686129;83;21050;-51
2022/05/18 07:41:13;;;;;;;1.00;0.60;;;;;;;11.95;44.12;99913.78;1678849;83;21783;-43
2022/05/18 07:43:42;;;;;;;0.50;0.50;;;;;;;12.00;43.60;99915.88;1676867;83;21149;-42
2022/05/18 07:46:09;;;;;;;0.95;0.40;;;;;;;12.04;43.58;99916.72;1710784;82;20985;-45
2022/05/18 07:48:36;;;;;;;0.60;0.50;;;;;;;11.97;44.09;99926.41;1709752;82;21077;-41
2022/05/18 07:51:03;;;;;;;1.05;0.50;;;;;;;11.86;43.84;99917.80;1706649;83;21014;-42
2022/05/18 07:53:31;;;;;;;1.10;0.47;;;;;;;11.75;44.86;99922.25;1672704;83;21120;-43
2022/05/18 07:56:01;;;;;;;1.65;0.60;;;;;;;11.66;45.59;99929.34;1680010;83;21066;-50
2022/05/18 07:58:28;;;;;;;3.02;0.75;;;;;;;11.58;46.28;99927.66;1679755;83;21057;-42
2022/05/18 08:00:55;;;;;;;6.17;0.65;;;;;;;11.54;46.33;99932.50;1678873;83;20984;-50
2022/05/18 08:03:22;;;;;;;1.12;0.57;;;;;;;11.52;46.87;99935.14;1706455;82;21060;-42
2022/05/18 08:05:49;;;;;;;3.37;0.70;;;;;;;11.48;47.39;99933.88;1700449;83;21100;-44
2022/05/18 08:08:19;;;;;;;2.05;0.80;;;;;;;11.48;48.17;99930.84;1714468;82;21105;-51
2022/05/18 08:16:17;;;;;;;0.60;0.60;;;;;;;11.58;49.60;99927.66;1727799;81;21572;-50
2022/05/18 08:18:44;;;;;;;0.82;0.60;;;;;;;11.73;49.23;99921.84;1726239;81;21395;-50
2022/05/18 08:21:12;;;;;;;1.92;0.85;;;;;;;11.97;48.26;99925.11;1725036;82;21083;-50
2022/05/18 08:23:39;;;;;;;2.17;0.95;;;;;;;12.18;48.92;99915.68;1729833;81;21077;-50
2022/05/18 08:26:05;;;;;;;4.20;0.90;;;;;;;12.46;47.36;99915.30;1724094;81;21334;-51
2022/05/18 08:28:33;;;;;;;2.67;0.78;;;;;;;12.69;46.54;99907.09;1725548;81;21607;-50
2022/05/18 08:31:00;;;;;;;5.42;0.90;;;;;;;12.96;46.08;99904.50;1689208;83;20973;-51
2022/05/18 08:33:28;;;;;;;0.70;0.50;;;;;;;13.22;45.78;99902.37;1668684;84;21629;-51
2022/05/18 08:35:55;;;;;;;3.33;0.90;;;;;;;13.44;44.98;99894.09;1654038;86;20964;-51
2022/05/18 08:38:22;;;;;;;5.40;0.70;;;;;;;13.71;45.10;99901.47;1680412;84;21608;-42
2022/05/18 08:41:16;;;;;;;7.83;0.68;;;;;;;13.96;44.00;99889.16;1679324;83;20976;-42
2022/05/18 08:43:50;;;;;;;9.43;0.98;;;;;;;14.20;42.76;99874.62;1693097;83;21416;-51
2022/05/18 08:46:44;;;;;;;0.80;0.50;;;;;;;14.40;42.50;99872.44;1690941;83;20985;-50
2022/05/18 08:49:21;;;;;;;0.60;0.50;;;;;;;14.38;39.25;99873.80;1693080;83;21051;-50
2022/05/18 08:52:06;;;;;;;1.70;1.12;;;;;;;14.23;39.00;99880.69;1689569;83;21062;-51
2022/05/18 08:55:28;;;;;;;2.30;1.50;;;;;;;14.08;40.20;99883.64;1672700;84;21439;-42
2022/05/18 08:57:58;;;;;;;2.30;0.60;;;;;;;13.93;40.62;99897.12;1655771;85;21350;-50
2022/05/18 09:00:34;;;;;;;10.15;1.35;;;;;;;13.54;40.36;99908.35;1642115;85;21068;-50
2022/05/18 09:03:05;;;;;;;1.90;0.62;;;;;;;13.20;39.71;99913.73;1694425;83;21107;-42
2022/05/18 09:05:40;;;;;;;0.40;0.40;;;;;;;12.94;41.98;99910.23;1657645;85;21331;-50
2022/05/18 09:08:17;;;;;;;2.50;0.75;;;;;;;12.90;43.72;99916.42;1692374;84;21076;-42
2022/05/18 09:10:57;;;;;;;1.55;0.57;;;;;;;12.81;44.70;99925.73;1650197;85;21024;-43
2022/05/18 09:13:24;;;;;;;1.47;1.35;;;;;;;12.75;46.04;99922.75;1643237;85;22034;-42
2022/05/18 09:16:16;;;;;;;6.45;1.15;;;;;;;12.64;46.33;99925.56;1712860;83;21046;-42
2022/05/18 09:19:08;;;;;;;8.25;0.57;;;;;;;12.48;46.86;99938.02;1689255;83;21096;-42
2022/05/18 09:21:52;;;;;;;4.62;0.60;;;;;;;12.36;45.67;99931.63;1721536;82;20985;-44
2022/05/18 09:24:47;;;;;;;1.52;0.70;;;;;;;12.11;44.79;99933.66;1688142;83;21017;-42
2022/05/18 09:27:34;;;;;;;2.90;0.50;;;;;;;11.84;47.65;99930.06;1691233;84;21065;-50
2022/05/18 09:30:24;;;;;;;0.55;0.50;;;;;;;11.63;48.52;99933.73;1691141;85;21525;-42
2022/05/18 09:35:45;;;;;;;0.78;0.60;;;;;;;11.50;45.24;99930.81;1818114;79;22845;-41
2022/05/18 09:38:18;;;;;;;0.93;0.55;;;;;;;11.47;45.20;99946.10;1788890;80;21061;-41
2022/05/18 09:40:47;;;;;;;0.78;0.60;;;;;;;11.58;44.82;99937.70;1720677;83;21696;-41
2022/05/18 09:43:22;;;;;;;1.95;0.70;;;;;;;11.74;44.40;99938.42;1718711;83;21057;-41
2022/05/18 09:45:50;;;;;;;2.80;0.78;;;;;;;11.95;43.21;99939.99;1723278;83;21509;-41
2022/05/18 09:48:20;;;;;;;2.70;0.95;;;;;;;12.19;42.34;99939.70;1714201;82;21067;-50
2022/05/18 09:50:48;;;;;;;0.72;0.72;;;;;;;12.46;41.77;99937.59;1721263;82;21650;-42
2022/05/18 09:53:14;;;;;;;1.00;0.80;;;;;;;12.67;41.61;99934.69;1721400;82;21684;-44
2022/05/18 09:55:41;;;;;;;1.05;1.00;;;;;;;12.82;41.41;99934.92;1723682;82;21544;-42
2022/05/18 09:58:19;;;;;;;1.65;1.00;;;;;;;12.96;41.33;99939.95;1683300;83;21082;-50
2022/05/18 10:00:46;;;;;;;1.60;1.50;;;;;;;12.97;41.63;99945.63;1722480;82;21046;-50
2022/05/18 10:08:57;;;;;;;2.55;1.02;;;;;;;12.98;43.25;99938.16;1721716;83;21106;-41
2022/05/18 10:11:28;;;;;;;2.45;1.12;;;;;;;13.10;42.02;99944.53;1721949;82;21015;-42
2022/05/18 10:14:09;;;;;;;1.77;1.00;;;;;;;13.12;42.57;99948.02;1725319;83;21112;-41
2022/05/18 10:16:49;;;;;;;6.67;1.20;;;;;;;13.05;42.85;99963.46;1710553;82;21361;-51
2022/05/18 10:19:36;;;;;;;2.05;1.40;;;;;;;12.86;45.05;99976.42;1675052;83;21065;-50
2022/05/18 10:22:06;;;;;;;5.08;1.07;;;;;;;12.43;45.84;99989.68;1715593;82;21110;-50
2022/05/18 10:24:45;;;;;;;5.95;1.05;;;;;;;11.88;47.20;99988.11;1721774;82;21031;-51
2022/05/18 10:27:23;;;;;;;2.15;1.10;;;;;;;11.42;48.72;99995.94;1718458;83;21046;-50
2022/05/18 10:30:10;;;;;;;26.82;2.50;;;;;;;11.05;50.07;100008.41;1629014;87;21150;-50
2022/05/18 10:32:57;;;;;;;11.08;0.93;;;;;;;10.81;51.42;100002.89;1657426;85;21129;-50
2022/05/18 10:35:46;;;;;;;2.27;1.72;;;;;;;10.74;52.51;100019.52;1656257;84;21120;-51
2022/05/18 10:38:26;;;;;;;3.70;2.37;;;;;;;10.79;54.61;100025.59;1651694;86;21081;-50
2022/05/18 10:41:06;;;;;;;1.05;0.68;;;;;;;10.73;54.89;100024.77;1666119;86;21069;-50
2022/05/18 10:43:41;;;;;;;2.87;0.57;;;;;;;10.60;55.98;100031.33;1673798;86;21160;-50
2022/05/18 10:46:34;;;;;;;0.60;0.60;;;;;;;10.46;56.78;100037.06;1659590;85;21061;-50
2022/05/18 10:49:05;;;;;;;0.85;0.60;;;;;;;10.31;56.75;100043.64;1590601;90;21602;-42
2022/05/18 10:51:43;;;;;;;1.80;1.02;;;;;;;10.13;57.13;100027.54;1603575;89;21063;-43
2022/05/18 10:54:27;;;;;;;0.90;0.90;;;;;;;9.99;59.73;100032.81;1607341;88;21095;-42
2022/05/18 10:56:56;;;;;;;;;;;;;;;9.85;59.81;100025.41;1619908;88;21076;-43
2022/05/18 10:59:43;;;;;;;1.45;1.05;;;;;;;9.72;61.83;100041.98;1605624;87;20126;-42
2022/05/18 11:02:31;;;;;;;1.00;0.90;;;;;;;9.64;62.90;100018.92;1593461;89;21084;-42
2022/05/18 11:05:18;;;;;;;2.08;0.57;;;;;;;9.67;63.27;100019.77;1581776;89;21642;-43
2022/05/18 11:07:45;;;;;;;4.25;0.93;;;;;;;9.74;63.67;100016.30;1627712;87;21131;-41
2022/05/18 11:10:12;;;;;;;2.17;1.80;;;;;;;9.83;61.51;100016.27;1635198;87;21634;-50
2022/05/18 11:12:55;;;;;;;1.42;1.05;;;;;;;9.92;60.84;100008.88;1614943;87;21069;-50
2022/05/18 11:15:33;;;;;;;2.42;1.40;;;;;;;10.03;60.99;100007.11;1607395;87;21455;-41
2022/05/18 11:18:25;;;;;;;1.27;1.15;;;;;;;10.12;61.25;100007.06;1626930;87;21064;-41
2022/05/18 11:21:16;;;;;;;2.27;1.65;;;;;;;10.21;62.30;100007.49;1611225;88;21081;-43
2022/05/18 11:24:14;;;;;;;2.83;1.50;;;;;;;10.37;61.97;99999.16;1603520;87;21168;-43
2022/05/18 11:27:01;;;;;;;3.92;2.12;;;;;;;10.54;61.99;99983.41;1687184;84;21534;-44
2022/05/18 11:29:55;;;;;;;4.83;2.05;;;;;;;10.72;58.14;99988.54;1686869;83;21123;-42
2022/05/18 11:32:42;;;;;;;3.65;1.72;;;;;;;10.85;57.12;99984.99;1698873;83;21644;-42
2022/05/18 11:36:04;;;;;;;3.70;1.92;;;;;;;10.97;57.59;99997.58;1662943;84;21081;-42
2022/05/18 11:38:45;;;;;;;3.08;1.80;;;;;;;11.04;57.13;99999.27;1707903;80;21639;-51
2022/05/18 11:41:22;;;;;;;3.17;1.98;;;;;;;11.19;56.11;99998.73;1665509;84;21488;-50
2022/05/18 11:44:09;;;;;;;4.22;2.10;;;;;;;11.29;56.99;100011.30;1641718;86;21079;-50
2022/05/18 11:47:05;;;;;;;2.58;1.40;;;;;;;11.33;58.12;100065.84;1657614;85;21589;-50
2022/05/18 11:49:39;;;;;;;4.65;1.77;;;;;;;11.16;60.85;100077.30;1622252;88;21103;-42
2022/05/18 11:52:22;;;;;;;9.23;2.50;;;;;;;10.50;62.79;100068.02;1570390;91;21114;-42
2022/05/18 11:55:33;;;;;;;24.63;3.60;;;;;;;9.97;65.80;100072.87;1569533;91;21138;-42
2022/05/18 12:01:38;;;;;;;3.83;0.82;;;;;;;9.31;68.83;100075.03;1512348;94;21165;-41
2022/05/18 12:04:42;;;;;;;1.80;0.80;;;;;;;9.17;69.61;100050.66;1517715;94;21092;-42
2022/05/18 12:07:57;;;;;;;1.50;0.50;;;;;;;9.22;70.00;100038.48;1518543;94;21304;-40
2022/05/18 12:10:29;;;;;;;1.45;0.50;;;;;;;9.38;70.31;100030.66;1517345;94;21148;-40
2022/05/18 12:13:23;;;;;;;0.78;0.78;;;;;;;9.62;70.95;100049.38;1502270;94;21191;-40
2022/05/18 12:16:04;;;;;;;1.20;0.70;;;;;;;9.72;71.93;100033.70;1508888;94;21112;-40
2022/05/18 12:19:08;;;;;;;2.08;0.60;;;;;;;9.78;70.39;100034.13;1535608;93;21724;-41
2022/05/18 12:21:44;;;;;;;1.05;0.62;;;;;;;9.79;70.68;100038.04;1526191;93;21104;-47
